Time;durP1;ratioP1;P1;durP2;ratioP2;P2;SDS_P1;SDS_P2;PMS_P1;PMS_P2;Temp;Humidity;BMP_temperature;BMP_pressure;BME280_temperature;BME280_humidity;BME280_pressure;Samples;Min_cycle;Max_cycle;Signal;HPM_P1;HPM_P2
2023/07/14 00:01:48;;;;;;;37.45;35.45;;;;;;;;;;5004235;28;20064;-74
2023/07/14 00:04:16;;;;;;;38.72;36.72;;;;;;;;;;5015344;28;20100;-75
2023/07/14 00:06:44;;;;;;;42.42;39.90;;;;;;;;;;5015091;28;20136;-76
2023/07/14 00:09:24;;;;;;;40.40;38.33;;;;;;;;;;5011907;28;20112;-76
2023/07/14 00:11:49;;;;;;;23.98;22.67;;;;;;;;;;5014519;28;20033;-75
2023/07/14 00:14:15;;;;;;;31.27;29.63;;;;;;;;;;5015301;28;20080;-67
2023/07/14 00:16:40;;;;;;;28.55;27.05;;;;;;;;;;5015474;28;20041;-66
2023/07/14 00:19:14;;;;;;;24.10;22.80;;;;;;;;;;5013903;28;20045;-66
2023/07/14 00:21:39;;;;;;;23.17;21.88;;;;;;;;;;5014498;28;20113;-66
2023/07/14 00:24:11;;;;;;;23.23;21.92;;;;;;;;;;5013989;28;20314;-66
2023/07/14 00:26:37;;;;;;;21.80;20.60;;;;;;;;;;5016242;28;20030;-66
2023/07/14 00:29:12;;;;;;;21.02;19.88;;;;;;;;;;5015071;28;20025;-66
2023/07/14 00:31:37;;;;;;;21.02;19.90;;;;;;;;;;5013890;28;20528;-66
2023/07/14 00:34:04;;;;;;;24.67;23.38;;;;;;;;;;5014982;28;20116;-66
2023/07/14 00:36:29;;;;;;;35.47;21.35;;;;;;;;;;5014812;28;20881;-73
2023/07/14 00:38:55;;;;;;;24.52;23.17;;;;;;;;;;5014375;28;20038;-66
2023/07/14 00:41:23;;;;;;;24.08;22.80;;;;;;;;;;5012899;28;20034;-66
2023/07/14 00:43:49;;;;;;;23.88;22.58;;;;;;;;;;5016623;28;20430;-75
2023/07/14 00:46:30;;;;;;;26.42;25.02;;;;;;;;;;5018660;28;20418;-75
2023/07/14 00:48:59;;;;;;;24.92;23.58;;;;;;;;;;5016711;28;20069;-75
2023/07/14 00:51:28;;;;;;;24.33;23.02;;;;;;;;;;5014712;28;20029;-66
2023/07/14 00:53:53;;;;;;;28.20;26.67;;;;;;;;;;5015637;28;20098;-66
2023/07/14 00:56:25;;;;;;;26.83;25.23;;;;;;;;;;5016029;28;20795;-75
2023/07/14 00:58:50;;;;;;;28.58;27.08;;;;;;;;;;5015127;28;20059;-75
2023/07/14 01:01:23;;;;;;;28.33;26.83;;;;;;;;;;5015721;28;20116;-66
2023/07/14 01:03:51;;;;;;;32.28;30.58;;;;;;;;;;5014439;28;20034;-66
2023/07/14 01:06:21;;;;;;;31.25;29.55;;;;;;;;;;5016793;28;20033;-65
2023/07/14 01:08:55;;;;;;;33.42;31.63;;;;;;;;;;5014319;28;20044;-65
2023/07/14 01:11:45;;;;;;;38.58;36.55;;;;;;;;;;5009532;28;20053;-76
2023/07/14 01:14:26;;;;;;;38.05;35.95;;;;;;;;;;5012639;28;20364;-76
2023/07/14 01:16:54;;;;;;;42.65;39.88;;;;;;;;;;5015600;28;20041;-66
2023/07/14 01:19:40;;;;;;;43.50;41.20;;;;;;;;;;5014723;28;20121;-76
2023/07/14 01:22:20;;;;;;;49.90;47.20;;;;;;;;;;5014055;28;20065;-76
2023/07/14 01:24:56;;;;;;;49.25;46.67;;;;;;;;;;5015915;28;20474;-75
2023/07/14 01:27:23;;;;;;;54.13;51.25;;;;;;;;;;5014601;28;20050;-65
2023/07/14 01:29:50;;;;;;;64.15;59.85;;;;;;;;;;5013518;28;20048;-65
2023/07/14 01:32:19;;;;;;;70.10;66.53;;;;;;;;;;5013155;28;20057;-65
2023/07/14 01:34:44;;;;;;;69.53;65.97;;;;;;;;;;5014192;28;20104;-65
2023/07/14 01:37:14;;;;;;;71.18;67.57;;;;;;;;;;5015212;28;20110;-75
2023/07/14 01:39:40;;;;;;;69.78;66.22;;;;;;;;;;5017922;28;21043;-75
2023/07/14 01:42:05;;;;;;;76.15;72.32;;;;;;;;;;5012485;28;20128;-75
2023/07/14 01:44:31;;;;;;;75.88;72.03;;;;;;;;;;5014953;28;20372;-74
2023/07/14 01:46:57;;;;;;;73.93;69.88;;;;;;;;;;5015977;28;20037;-65
2023/07/14 01:49:34;;;;;;;75.30;71.53;;;;;;;;;;5012806;28;20126;-65
2023/07/14 01:52:02;;;;;;;81.13;77.03;;;;;;;;;;5015118;28;20030;-65
2023/07/14 01:54:45;;;;;;;88.22;83.78;;;;;;;;;;5013991;28;20021;-65
2023/07/14 01:57:14;;;;;;;85.03;80.75;;;;;;;;;;5014665;28;20069;-64
2023/07/14 01:59:51;;;;;;;87.95;83.50;;;;;;;;;;5016152;28;20063;-65
2023/07/14 02:02:24;;;;;;;94.60;89.80;;;;;;;;;;5015934;28;20033;-65
2023/07/14 02:04:51;;;;;;;92.60;87.95;;;;;;;;;;5022742;28;20044;-65
2023/07/14 02:07:18;;;;;;;92.65;88.03;;;;;;;;;;5018592;28;20053;-65
2023/07/14 02:09:44;;;;;;;96.88;91.97;;;;;;;;;;5019737;28;20033;-65
2023/07/14 02:12:15;;;;;;;92.82;88.20;;;;;;;;;;5017126;28;20046;-65
2023/07/14 02:14:48;;;;;;;99.00;93.28;;;;;;;;;;5016919;28;20033;-75
2023/07/14 02:17:25;;;;;;;99.45;94.38;;;;;;;;;;5021972;28;20592;-65
2023/07/14 02:19:51;;;;;;;106.93;101.50;;;;;;;;;;5017211;28;20063;-65
2023/07/14 02:22:18;;;;;;;111.18;105.60;;;;;;;;;;5016936;28;20681;-65
2023/07/14 02:24:46;;;;;;;101.03;96.00;;;;;;;;;;5018379;28;20037;-65
2023/07/14 02:27:12;;;;;;;103.57;98.40;;;;;;;;;;5015318;28;20034;-65
2023/07/14 02:29:37;;;;;;;116.53;110.57;;;;;;;;;;5017413;28;20049;-65
2023/07/14 02:32:12;;;;;;;127.20;120.75;;;;;;;;;;5018280;28;21350;-65
2023/07/14 02:34:43;;;;;;;125.45;119.07;;;;;;;;;;5016531;28;20040;-65
2023/07/14 02:37:43;;;;;;;123.88;117.63;;;;;;;;;;5016993;28;20038;-75
2023/07/14 02:40:10;;;;;;;115.53;109.63;;;;;;;;;;5018534;28;20046;-75
2023/07/14 02:42:38;;;;;;;128.88;122.28;;;;;;;;;;5017001;28;20037;-75
2023/07/14 02:45:05;;;;;;;131.20;124.57;;;;;;;;;;5016408;28;20041;-75
2023/07/14 02:47:34;;;;;;;127.07;119.88;;;;;;;;;;5017062;28;20037;-65
2023/07/14 02:50:00;;;;;;;135.70;128.90;;;;;;;;;;5013505;28;20053;-67
2023/07/14 02:52:25;;;;;;;138.57;131.63;;;;;;;;;;5016127;28;20030;-76
2023/07/14 02:54:50;;;;;;;129.13;122.65;;;;;;;;;;5017116;28;20086;-65
2023/07/14 02:57:16;;;;;;;137.90;131.02;;;;;;;;;;5016940;28;20063;-65
2023/07/14 02:59:41;;;;;;;143.30;136.10;;;;;;;;;;5014829;28;20079;-65
2023/07/14 03:02:06;;;;;;;135.48;128.68;;;;;;;;;;5020890;28;20065;-65
2023/07/14 03:04:34;;;;;;;137.00;130.13;;;;;;;;;;5015778;28;20465;-76
2023/07/14 03:07:00;;;;;;;142.32;135.15;;;;;;;;;;5018720;28;20095;-76
2023/07/14 03:09:26;;;;;;;138.05;131.13;;;;;;;;;;5019017;28;20033;-65
2023/07/14 03:11:51;;;;;;;137.95;131.00;;;;;;;;;;5018426;28;20038;-65
2023/07/14 03:14:16;;;;;;;144.57;137.35;;;;;;;;;;5014812;28;20291;-76
2023/07/14 03:16:42;;;;;;;135.55;128.77;;;;;;;;;;5020455;28;20578;-76
2023/07/14 03:19:07;;;;;;;140.82;133.82;;;;;;;;;;5017700;28;20068;-75
2023/07/14 03:21:32;;;;;;;153.65;145.95;;;;;;;;;;5018568;28;20037;-65
2023/07/14 03:23:58;;;;;;;139.73;132.60;;;;;;;;;;5014033;28;20403;-65
2023/07/14 03:26:24;;;;;;;129.38;122.90;;;;;;;;;;5016840;28;20033;-75
2023/07/14 03:28:49;;;;;;;120.38;114.40;;;;;;;;;;5016139;28;20112;-75
2023/07/14 03:31:14;;;;;;;128.00;121.63;;;;;;;;;;5018278;28;20456;-65
2023/07/14 03:33:41;;;;;;;109.72;104.28;;;;;;;;;;5016290;28;20477;-65
2023/07/14 03:36:10;;;;;;;126.68;120.38;;;;;;;;;;5018238;28;20041;-65
2023/07/14 03:38:40;;;;;;;126.35;120.07;;;;;;;;;;5013818;28;20044;-65
2023/07/14 03:41:06;;;;;;;;;;;;;;;;;;5017514;28;20041;-64
2023/07/14 03:43:31;;;;;;;80.40;76.40;;;;;;;;;;5015717;28;19921;-65
2023/07/14 03:45:57;;;;;;;86.47;82.15;;;;;;;;;;5016343;28;20026;-64
2023/07/14 03:48:23;;;;;;;76.18;72.38;;;;;;;;;;5021359;28;20029;-65
2023/07/14 03:50:48;;;;;;;86.55;82.22;;;;;;;;;;5016958;28;20543;-75
2023/07/14 03:53:14;;;;;;;97.97;93.07;;;;;;;;;;5018149;28;20023;-64
2023/07/14 03:55:40;;;;;;;113.28;107.68;;;;;;;;;;5017935;28;20041;-65
2023/07/14 03:58:06;;;;;;;115.72;109.93;;;;;;;;;;5013390;28;20375;-65
2023/07/14 04:00:32;;;;;;;128.55;122.13;;;;;;;;;;5015304;28;20037;-65
2023/07/14 04:02:58;;;;;;;120.97;114.93;;;;;;;;;;5013858;28;20128;-65
2023/07/14 04:05:24;;;;;;;120.63;114.60;;;;;;;;;;5017578;28;20444;-65
2023/07/14 04:07:50;;;;;;;121.88;115.68;;;;;;;;;;5012546;28;20041;-65
2023/07/14 04:10:17;;;;;;;103.47;98.30;;;;;;;;;;5015898;28;20033;-76
2023/07/14 04:12:43;;;;;;;99.32;94.32;;;;;;;;;;5017954;28;20029;-76
2023/07/14 04:15:08;;;;;;;109.60;104.13;;;;;;;;;;5013138;28;20495;-65
2023/07/14 04:17:33;;;;;;;111.35;105.72;;;;;;;;;;5017529;28;20033;-64
2023/07/14 04:19:59;;;;;;;96.68;91.80;;;;;;;;;;5017169;28;20044;-64
2023/07/14 04:22:25;;;;;;;108.53;103.10;;;;;;;;;;5017733;28;20496;-64
2023/07/14 04:24:50;;;;;;;85.60;81.10;;;;;;;;;;5015115;28;20041;-65
2023/07/14 04:27:15;;;;;;;96.47;91.65;;;;;;;;;;5019422;28;20437;-64
2023/07/14 04:29:41;;;;;;;99.90;94.90;;;;;;;;;;5013233;28;20040;-65
2023/07/14 04:32:08;;;;;;;101.07;96.03;;;;;;;;;;5014126;28;20081;-64
2023/07/14 04:34:34;;;;;;;106.93;101.57;;;;;;;;;;5015294;28;20090;-64
2023/07/14 04:37:00;;;;;;;116.30;110.43;;;;;;;;;;5015806;28;20416;-64
2023/07/14 04:39:25;;;;;;;118.60;112.63;;;;;;;;;;5015278;28;20041;-64
2023/07/14 04:41:52;;;;;;;121.82;115.68;;;;;;;;;;5012367;28;20037;-64
2023/07/14 04:44:18;;;;;;;112.03;106.22;;;;;;;;;;5002558;28;20384;-64
2023/07/14 04:46:44;;;;;;;108.00;102.57;;;;;;;;;;5012769;28;20045;-64
2023/07/14 04:49:11;;;;;;;107.85;102.35;;;;;;;;;;5015215;28;20037;-64
2023/07/14 04:51:36;;;;;;;105.13;99.85;;;;;;;;;;5014480;28;20404;-64
2023/07/14 04:54:03;;;;;;;102.40;97.25;;;;;;;;;;5015315;28;20022;-65
2023/07/14 04:56:29;;;;;;;110.70;105.10;;;;;;;;;;5014932;28;20116;-75
2023/07/14 04:58:55;;;;;;;79.22;75.22;;;;;;;;;;5013027;28;20095;-76
2023/07/14 05:01:21;;;;;;;101.72;96.32;;;;;;;;;;5012169;28;20038;-75
2023/07/14 05:03:47;;;;;;;83.78;79.57;;;;;;;;;;5016295;28;20606;-75
2023/07/14 05:06:12;;;;;;;74.70;70.88;;;;;;;;;;5016398;28;20036;-76
2023/07/14 05:08:38;;;;;;;52.45;49.83;;;;;;;;;;5013816;28;20049;-75
2023/07/14 05:11:03;;;;;;;87.93;83.53;;;;;;;;;;5014417;28;20610;-75
2023/07/14 05:13:29;;;;;;;57.17;54.28;;;;;;;;;;5014561;28;20091;-76
2023/07/14 05:15:58;;;;;;;52.42;49.72;;;;;;;;;;5015429;28;20053;-75
2023/07/14 05:18:24;;;;;;;55.92;53.08;;;;;;;;;;5013649;28;20154;-64
2023/07/14 05:20:49;;;;;;;56.50;53.15;;;;;;;;;;5010786;28;20116;-64
2023/07/14 05:23:16;;;;;;;49.03;46.53;;;;;;;;;;5014718;28;20044;-65
2023/07/14 05:25:41;;;;;;;30.48;28.83;;;;;;;;;;5014365;28;20080;-64
2023/07/14 05:28:07;;;;;;;43.35;41.10;;;;;;;;;;5014568;28;20718;-64
2023/07/14 05:30:33;;;;;;;64.45;60.10;;;;;;;;;;5014395;28;20410;-64
2023/07/14 05:32:59;;;;;;;40.67;38.58;;;;;;;;;;5013933;28;20069;-64
2023/07/14 05:35:25;;;;;;;64.95;61.60;;;;;;;;;;5012566;28;20075;-65
2023/07/14 05:37:50;;;;;;;60.15;57.10;;;;;;;;;;5012837;28;20076;-65
2023/07/14 05:40:17;;;;;;;27.35;25.90;;;;;;;;;;5013154;28;20033;-64
2023/07/14 05:42:43;;;;;;;15.50;14.60;;;;;;;;;;5013063;28;20142;-65
2023/07/14 05:45:10;;;;;;;23.52;22.27;;;;;;;;;;5014503;28;20033;-65
2023/07/14 05:47:37;;;;;;;35.30;33.42;;;;;;;;;;5012119;28;20506;-65
2023/07/14 05:50:04;;;;;;;18.52;17.33;;;;;;;;;;5014758;28;20053;-65
2023/07/14 05:52:29;;;;;;;21.40;20.15;;;;;;;;;;5016979;28;20037;-65
2023/07/14 05:54:55;;;;;;;13.95;13.15;;;;;;;;;;5012808;28;20037;-66
2023/07/14 05:57:20;;;;;;;17.08;16.08;;;;;;;;;;5012375;28;20050;-65
2023/07/14 05:59:45;;;;;;;14.68;13.77;;;;;;;;;;5016791;28;20038;-64
2023/07/14 06:02:14;;;;;;;13.88;13.07;;;;;;;;;;5013365;28;20120;-65
2023/07/14 06:04:43;;;;;;;10.90;10.20;;;;;;;;;;5014686;28;20151;-65
2023/07/14 06:07:09;;;;;;;11.70;11.00;;;;;;;;;;5000933;28;20034;-65
2023/07/14 06:09:37;;;;;;;12.07;11.38;;;;;;;;;;5015269;28;20029;-65
2023/07/14 06:12:04;;;;;;;12.43;11.63;;;;;;;;;;5015181;28;20072;-64
2023/07/14 06:14:33;;;;;;;12.80;12.00;;;;;;;;;;5013943;28;20053;-65
2023/07/14 06:16:59;;;;;;;13.45;12.45;;;;;;;;;;5013544;28;20068;-65
2023/07/14 06:19:25;;;;;;;10.35;9.65;;;;;;;;;;5013089;28;20847;-65
2023/07/14 06:21:50;;;;;;;13.20;12.40;;;;;;;;;;5015179;28;20057;-64
2023/07/14 06:24:16;;;;;;;14.23;13.43;;;;;;;;;;5010756;28;20105;-64
2023/07/14 06:26:41;;;;;;;11.50;10.70;;;;;;;;;;5014193;28;20452;-65
2023/07/14 06:29:07;;;;;;;11.55;10.85;;;;;;;;;;5010676;28;20411;-65
2023/07/14 06:31:34;;;;;;;12.05;11.35;;;;;;;;;;5014788;28;20048;-65
2023/07/14 06:33:59;;;;;;;11.18;10.25;;;;;;;;;;5013564;28;20132;-65
2023/07/14 06:36:25;;;;;;;13.82;12.82;;;;;;;;;;5014161;28;20156;-64
2023/07/14 06:38:50;;;;;;;13.85;12.75;;;;;;;;;;5012854;28;20759;-65
2023/07/14 06:41:15;;;;;;;11.40;10.70;;;;;;;;;;5014077;28;20037;-65
2023/07/14 06:43:41;;;;;;;11.68;10.98;;;;;;;;;;5013699;28;20057;-65
2023/07/14 06:46:07;;;;;;;12.05;11.25;;;;;;;;;;5016231;28;20087;-65
2023/07/14 06:48:32;;;;;;;12.52;11.63;;;;;;;;;;5017261;28;20030;-65
2023/07/14 06:50:58;;;;;;;14.63;13.73;;;;;;;;;;5018326;28;20096;-65
2023/07/14 06:53:23;;;;;;;12.60;11.85;;;;;;;;;;5018831;28;20061;-65
2023/07/14 06:55:49;;;;;;;13.02;12.23;;;;;;;;;;5016185;28;20031;-65
2023/07/14 06:58:14;;;;;;;13.52;12.73;;;;;;;;;;5020244;28;20030;-66
2023/07/14 07:00:40;;;;;;;12.40;11.57;;;;;;;;;;5017499;28;20037;-66
2023/07/14 07:03:06;;;;;;;11.52;10.82;;;;;;;;;;5018850;28;20037;-65
2023/07/14 07:05:41;;;;;;;13.48;12.68;;;;;;;;;;5015659;28;20693;-65
2023/07/14 07:08:11;;;;;;;15.07;14.18;;;;;;;;;;5017941;28;20037;-66
2023/07/14 07:10:39;;;;;;;13.70;12.90;;;;;;;;;;5019618;28;20099;-66
2023/07/14 07:13:05;;;;;;;24.30;22.90;;;;;;;;;;5016111;28;20123;-66
2023/07/14 07:15:30;;;;;;;24.42;23.05;;;;;;;;;;5016474;28;20403;-66
2023/07/14 07:17:55;;;;;;;15.95;15.05;;;;;;;;;;5019356;28;20116;-66
2023/07/14 07:20:21;;;;;;;36.40;34.38;;;;;;;;;;5017021;28;20029;-66
2023/07/14 07:22:47;;;;;;;23.70;22.42;;;;;;;;;;5016364;28;20053;-66
2023/07/14 07:25:12;;;;;;;31.08;29.45;;;;;;;;;;5017611;28;20037;-66
2023/07/14 07:27:38;;;;;;;55.33;52.47;;;;;;;;;;5016543;28;20034;-66
2023/07/14 07:30:05;;;;;;;53.97;51.20;;;;;;;;;;5016997;28;20060;-66
2023/07/14 07:32:31;;;;;;;53.22;50.50;;;;;;;;;;5015543;28;20049;-67
2023/07/14 07:34:59;;;;;;;83.75;79.20;;;;;;;;;;5015169;28;20045;-66
2023/07/14 07:37:28;;;;;;;54.28;51.55;;;;;;;;;;5016767;28;20152;-67
2023/07/14 07:39:55;;;;;;;57.80;54.90;;;;;;;;;;5008748;28;20412;-66
2023/07/14 07:42:21;;;;;;;47.00;44.60;;;;;;;;;;5014886;28;20452;-66
2023/07/14 07:44:46;;;;;;;65.53;62.25;;;;;;;;;;5015629;28;20109;-66
2023/07/14 07:47:12;;;;;;;55.08;52.08;;;;;;;;;;5016421;28;20128;-66
2023/07/14 07:49:38;;;;;;;51.72;49.13;;;;;;;;;;5019989;28;20040;-66
2023/07/14 07:52:04;;;;;;;52.60;49.92;;;;;;;;;;5017072;28;20046;-66
2023/07/14 07:54:30;;;;;;;63.92;60.72;;;;;;;;;;5018124;28;20037;-66
2023/07/14 07:56:55;;;;;;;69.68;66.22;;;;;;;;;;5018671;28;20046;-66
2023/07/14 07:59:21;;;;;;;99.30;94.45;;;;;;;;;;5016965;28;20628;-66
2023/07/14 08:01:46;;;;;;;73.72;70.07;;;;;;;;;;5014561;28;20026;-65
2023/07/14 08:04:12;;;;;;;94.82;90.03;;;;;;;;;;5021772;28;20129;-66
2023/07/14 08:06:37;;;;;;;53.00;50.30;;;;;;;;;;5016938;28;20838;-66
2023/07/14 08:09:04;;;;;;;86.13;81.75;;;;;;;;;;5016274;28;20155;-66
2023/07/14 08:11:30;;;;;;;85.15;80.95;;;;;;;;;;5018167;28;20064;-67
2023/07/14 08:13:58;;;;;;;95.85;91.15;;;;;;;;;;5016613;28;20403;-66
2023/07/14 08:16:25;;;;;;;65.75;62.47;;;;;;;;;;5017200;28;20041;-67
2023/07/14 08:18:50;;;;;;;86.30;81.95;;;;;;;;;;5016894;28;20065;-66
2023/07/14 08:21:16;;;;;;;61.13;57.97;;;;;;;;;;5014807;28;20037;-66
2023/07/14 08:23:41;;;;;;;71.05;67.53;;;;;;;;;;5018011;28;20029;-66
2023/07/14 08:26:07;;;;;;;75.65;71.85;;;;;;;;;;5020857;28;20411;-66
2023/07/14 08:28:32;;;;;;;57.53;54.63;;;;;;;;;;5015783;28;20045;-66
2023/07/14 08:31:01;;;;;;;29.40;27.88;;;;;;;;;;5017248;28;20107;-67
2023/07/14 08:33:27;;;;;;;42.53;40.35;;;;;;;;;;5015340;28;20065;-66
2023/07/14 08:35:54;;;;;;;50.50;47.97;;;;;;;;;;5016607;28;20073;-68
2023/07/14 08:38:20;;;;;;;42.58;40.35;;;;;;;;;;5016495;28;20037;-72
2023/07/14 08:40:56;;;;;;;27.80;26.30;;;;;;;;;;5017886;28;20026;-72
2023/07/14 08:43:53;;;;;;;61.88;58.65;;;;;;;;;;5015089;28;20034;-71
2023/07/14 08:46:26;;;;;;;25.90;24.52;;;;;;;;;;5015650;28;20069;-72
2023/07/14 08:49:05;;;;;;;115.57;109.88;;;;;;;;;;5015757;28;20057;-76
2023/07/14 08:51:40;;;;;;;66.07;62.55;;;;;;;;;;5013626;28;20040;-73
2023/07/14 08:54:13;;;;;;;25.35;23.10;;;;;;;;;;5013680;28;20064;-71
2023/07/14 08:56:40;;;;;;;36.08;34.22;;;;;;;;;;5015260;28;20037;-72
2023/07/14 08:59:13;;;;;;;144.98;137.80;;;;;;;;;;5004776;28;20406;-73
2023/07/14 09:01:53;;;;;;;153.70;146.18;;;;;;;;;;5012924;28;20094;-72
2023/07/14 09:04:24;;;;;;;103.07;98.00;;;;;;;;;;5016748;28;20419;-73
2023/07/14 09:06:50;;;;;;;47.95;45.50;;;;;;;;;;5020351;28;20045;-71
2023/07/14 09:09:29;;;;;;;32.13;30.35;;;;;;;;;;5014825;28;20030;-73
2023/07/14 09:12:11;;;;;;;136.73;130.00;;;;;;;;;;5014989;28;20471;-72
2023/07/14 09:14:48;;;;;;;163.20;155.15;;;;;;;;;;5012406;28;20934;-73
2023/07/14 09:17:42;;;;;;;179.48;170.70;;;;;;;;;;5016519;28;20057;-73
2023/07/14 09:20:29;;;;;;;127.45;121.05;;;;;;;;;;5013842;28;20042;-71
2023/07/14 09:23:21;;;;;;;143.15;136.13;;;;;;;;;;5016868;28;20082;-72
2023/07/14 09:26:07;;;;;;;114.40;108.75;;;;;;;;;;5011950;28;20029;-72
2023/07/14 09:28:39;;;;;;;186.73;177.63;;;;;;;;;;5018401;28;20042;-72
2023/07/14 09:31:30;;;;;;;71.90;68.32;;;;;;;;;;5012624;28;20411;-72
2023/07/14 09:33:59;;;;;;;80.50;76.50;;;;;;;;;;5015154;28;20026;-69
2023/07/14 09:36:27;;;;;;;138.13;131.35;;;;;;;;;;5013207;28;20037;-69
2023/07/14 09:39:01;;;;;;;62.67;59.50;;;;;;;;;;5014811;28;20068;-68
2023/07/14 09:41:30;;;;;;;57.03;54.17;;;;;;;;;;5008789;28;20066;-69
2023/07/14 09:43:57;;;;;;;56.92;54.03;;;;;;;;;;5011124;28;20021;-68
2023/07/14 09:46:23;;;;;;;66.47;63.10;;;;;;;;;;5011569;28;20045;-73
2023/07/14 09:48:52;;;;;;;57.00;54.00;;;;;;;;;;5011693;28;20400;-73
2023/07/14 09:51:23;;;;;;;62.03;58.92;;;;;;;;;;5012733;28;20026;-72
2023/07/14 09:54:07;;;;;;;52.92;50.25;;;;;;;;;;5014632;28;20030;-69
2023/07/14 09:56:36;;;;;;;64.97;61.63;;;;;;;;;;5009269;28;20034;-74
2023/07/14 09:59:07;;;;;;;58.15;55.25;;;;;;;;;;5013075;28;20034;-72
2023/07/14 10:01:33;;;;;;;56.05;53.25;;;;;;;;;;5010825;28;20522;-69
2023/07/14 10:04:13;;;;;;;59.95;56.95;;;;;;;;;;5013639;28;20046;-68
2023/07/14 10:06:38;;;;;;;;;;;;;;;;;;5015278;28;20432;-68
2023/07/14 10:09:11;;;;;;;61.33;58.25;;;;;;;;;;5014120;28;19979;-72
2023/07/14 10:11:43;;;;;;;49.47;46.97;;;;;;;;;;5012782;28;20045;-76
2023/07/14 10:14:25;;;;;;;60.53;57.50;;;;;;;;;;5012019;28;20066;-73
2023/07/14 10:16:53;;;;;;;50.55;47.97;;;;;;;;;;5011512;28;20090;-73
2023/07/14 10:19:21;;;;;;;60.65;57.65;;;;;;;;;;5009887;28;20050;-74
2023/07/14 10:21:55;;;;;;;59.63;56.63;;;;;;;;;;5016148;28;20107;-72
2023/07/14 10:24:21;;;;;;;63.67;60.45;;;;;;;;;;5016190;28;20041;-73
2023/07/14 10:26:51;;;;;;;59.42;56.33;;;;;;;;;;5019659;28;20030;-72
2023/07/14 10:29:19;;;;;;;60.05;57.05;;;;;;;;;;5015685;28;20051;-73
2023/07/14 10:31:58;;;;;;;61.95;58.85;;;;;;;;;;5018830;28;20553;-73
2023/07/14 10:34:36;;;;;;;61.42;58.33;;;;;;;;;;5013854;28;20038;-72
2023/07/14 10:37:09;;;;;;;66.80;63.45;;;;;;;;;;5017822;28;20127;-72
2023/07/14 10:39:43;;;;;;;59.63;56.63;;;;;;;;;;5013798;28;20026;-69
2023/07/14 10:42:17;;;;;;;42.92;40.72;;;;;;;;;;5016390;28;20942;-69
2023/07/14 10:44:45;;;;;;;58.35;55.42;;;;;;;;;;5015904;28;20053;-69
2023/07/14 10:47:35;;;;;;;58.60;55.70;;;;;;;;;;5015500;28;20045;-69
2023/07/14 10:50:18;;;;;;;56.00;53.17;;;;;;;;;;5019987;28;20087;-69
2023/07/14 10:52:49;;;;;;;57.63;54.63;;;;;;;;;;5025007;28;20041;-69
2023/07/14 10:55:25;;;;;;;58.47;55.38;;;;;;;;;;5018033;28;20509;-71
2023/07/14 10:57:58;;;;;;;36.72;34.83;;;;;;;;;;5020901;28;20030;-73
2023/07/14 11:00:39;;;;;;;51.03;48.42;;;;;;;;;;5015820;28;20091;-70
2023/07/14 11:03:28;;;;;;;51.83;49.22;;;;;;;;;;5015104;28;20376;-72
2023/07/14 11:05:55;;;;;;;53.22;50.53;;;;;;;;;;5016500;28;20034;-71
2023/07/14 11:08:23;;;;;;;53.95;51.22;;;;;;;;;;5017530;28;20155;-79
2023/07/14 11:11:19;;;;;;;58.50;55.53;;;;;;;;;;5021478;28;20038;-79
2023/07/14 11:13:59;;;;;;;51.90;49.15;;;;;;;;;;5005605;28;20037;-75
2023/07/14 11:16:36;;;;;;;;;;;;;;;;;;5017298;28;20045;-75
2023/07/14 11:19:08;;;;;;;49.13;46.65;;;;;;;;;;5021077;28;20320;-71
2023/07/14 11:21:46;;;;;;;54.90;52.13;;;;;;;;;;5017713;28;20134;-76
2023/07/14 11:24:14;;;;;;;55.15;52.25;;;;;;;;;;5019013;28;20029;-71
2023/07/14 11:27:12;;;;;;;46.15;43.85;;;;;;;;;;5014953;28;20116;-70
2023/07/14 11:30:06;;;;;;;52.75;50.08;;;;;;;;;;5016002;28;20037;-70
2023/07/14 11:32:40;;;;;;;49.72;47.13;;;;;;;;;;5015200;28;20052;-71
2023/07/14 11:35:16;;;;;;;44.22;42.03;;;;;;;;;;5012466;28;20124;-70
2023/07/14 11:37:49;;;;;;;44.70;42.42;;;;;;;;;;5018927;28;20383;-71
2023/07/14 11:40:20;;;;;;;45.70;43.40;;;;;;;;;;5018279;28;20046;-69
2023/07/14 11:42:51;;;;;;;49.25;46.78;;;;;;;;;;5016630;28;20057;-71
2023/07/14 11:45:20;;;;;;;46.83;44.42;;;;;;;;;;5013956;28;20040;-72
2023/07/14 11:47:47;;;;;;;45.88;43.50;;;;;;;;;;5016931;28;20038;-71
2023/07/14 11:50:15;;;;;;;56.28;53.47;;;;;;;;;;5017452;28;20057;-70
2023/07/14 11:52:41;;;;;;;52.05;49.45;;;;;;;;;;5017469;28;20462;-71
2023/07/14 11:55:24;;;;;;;47.97;45.50;;;;;;;;;;5016420;28;20065;-71
2023/07/14 11:58:04;;;;;;;51.63;49.05;;;;;;;;;;5016029;28;20033;-69
2023/07/14 12:00:59;;;;;;;59.70;56.70;;;;;;;;;;5014537;28;20682;-72
2023/07/14 12:03:38;;;;;;;52.80;50.15;;;;;;;;;;5013552;28;20061;-71
2023/07/14 12:06:18;;;;;;;61.53;58.45;;;;;;;;;;5017640;28;20123;-72
2023/07/14 12:09:04;;;;;;;62.63;58.92;;;;;;;;;;5017283;28;20120;-70
2023/07/14 12:11:46;;;;;;;62.60;59.47;;;;;;;;;;5018581;28;20120;-70
2023/07/14 12:14:27;;;;;;;50.28;47.72;;;;;;;;;;5017818;28;20141;-71
2023/07/14 12:16:52;;;;;;;41.45;39.33;;;;;;;;;;5016920;28;20051;-70
2023/07/14 12:19:52;;;;;;;28.85;27.35;;;;;;;;;;5017633;28;20103;-70
2023/07/14 12:22:37;;;;;;;42.90;40.70;;;;;;;;;;5015519;28;20460;-69
2023/07/14 12:25:12;;;;;;;50.92;48.22;;;;;;;;;;5017521;28;20048;-69
2023/07/14 12:27:41;;;;;;;54.85;52.05;;;;;;;;;;5024046;28;20361;-69
2023/07/14 12:30:17;;;;;;;45.85;43.45;;;;;;;;;;5016333;28;20175;-70
2023/07/14 12:32:43;;;;;;;24.05;22.75;;;;;;;;;;5017091;28;20085;-71
2023/07/14 12:35:12;;;;;;;20.67;19.48;;;;;;;;;;5016511;28;20069;-70
2023/07/14 12:37:38;;;;;;;17.95;16.95;;;;;;;;;;5015824;28;20615;-74
2023/07/14 12:40:06;;;;;;;20.33;19.23;;;;;;;;;;5019274;28;20041;-70
2023/07/14 12:42:33;;;;;;;39.25;37.25;;;;;;;;;;5014357;28;20349;-70
2023/07/14 12:44:59;;;;;;;19.38;18.08;;;;;;;;;;5002245;28;20030;-71
2023/07/14 12:47:25;;;;;;;26.17;24.77;;;;;;;;;;5017218;28;20045;-71
2023/07/14 12:49:52;;;;;;;14.73;13.93;;;;;;;;;;5012855;28;20389;-72
2023/07/14 12:52:30;;;;;;;14.48;13.57;;;;;;;;;;5014999;28;20049;-71
2023/07/14 12:55:02;;;;;;;15.20;14.30;;;;;;;;;;5014796;28;20064;-66
2023/07/14 12:57:31;;;;;;;14.13;13.30;;;;;;;;;;5011499;28;20041;-69
2023/07/14 12:59:56;;;;;;;18.35;17.35;;;;;;;;;;5012390;28;20457;-68
2023/07/14 13:02:23;;;;;;;14.25;13.45;;;;;;;;;;5023619;28;20110;-69
2023/07/14 13:04:50;;;;;;;14.77;13.98;;;;;;;;;;5013779;28;20030;-71
2023/07/14 13:07:19;;;;;;;14.32;13.52;;;;;;;;;;5014018;28;20041;-71
2023/07/14 13:09:56;;;;;;;13.55;12.75;;;;;;;;;;5016138;28;20122;-72
2023/07/14 13:12:22;;;;;;;15.82;14.93;;;;;;;;;;5017348;28;20120;-72
2023/07/14 13:14:51;;;;;;;16.90;15.95;;;;;;;;;;5011762;28;20531;-70
2023/07/14 13:17:25;;;;;;;14.00;13.20;;;;;;;;;;5016370;28;20116;-72
2023/07/14 13:19:51;;;;;;;15.50;14.60;;;;;;;;;;5028569;28;20416;-73
2023/07/14 13:22:19;;;;;;;13.75;12.75;;;;;;;;;;5003286;28;20076;-71
2023/07/14 13:24:57;;;;;;;17.42;15.93;;;;;;;;;;5014826;28;20074;-70
2023/07/14 13:27:24;;;;;;;24.83;23.52;;;;;;;;;;5016745;28;20037;-74
2023/07/14 13:30:00;;;;;;;25.00;23.70;;;;;;;;;;5013592;28;20452;-73
2023/07/14 13:32:27;;;;;;;22.10;20.90;;;;;;;;;;5017705;28;20563;-74
2023/07/14 13:34:59;;;;;;;21.67;20.50;;;;;;;;;;5014806;28;20472;-76
2023/07/14 13:37:27;;;;;;;18.75;17.70;;;;;;;;;;5016376;28;20100;-69
2023/07/14 13:39:58;;;;;;;14.35;13.52;;;;;;;;;;5012916;28;20065;-72
2023/07/14 13:42:34;;;;;;;17.83;16.83;;;;;;;;;;5015214;28;20044;-76
2023/07/14 13:45:03;;;;;;;15.63;14.73;;;;;;;;;;5016299;28;20076;-73
2023/07/14 13:47:42;;;;;;;15.48;14.57;;;;;;;;;;5012260;28;20033;-70
2023/07/14 13:50:08;;;;;;;18.05;17.05;;;;;;;;;;5012591;28;20549;-71
2023/07/14 13:52:35;;;;;;;13.93;13.13;;;;;;;;;;5017396;28;20052;-71
2023/07/14 13:55:12;;;;;;;15.95;15.05;;;;;;;;;;5014412;28;20029;-73
2023/07/14 13:57:38;;;;;;;21.67;17.83;;;;;;;;;;5018858;28;20188;-74
2023/07/14 14:00:04;;;;;;;18.30;17.30;;;;;;;;;;5021974;28;20040;-76
2023/07/14 14:02:40;;;;;;;16.40;15.50;;;;;;;;;;5019764;28;20368;-76
2023/07/14 14:05:18;;;;;;;23.20;22.00;;;;;;;;;;5018728;28;20029;-71
2023/07/14 14:07:44;;;;;;;16.35;15.45;;;;;;;;;;5019100;28;20603;-62
2023/07/14 14:10:19;;;;;;;18.38;17.38;;;;;;;;;;5020173;28;20121;-74
2023/07/14 14:12:45;;;;;;;18.40;17.40;;;;;;;;;;5015011;28;20114;-68
2023/07/14 14:15:15;;;;;;;18.90;17.90;;;;;;;;;;5017863;28;20045;-73
2023/07/14 14:17:42;;;;;;;14.93;14.07;;;;;;;;;;5015980;28;20790;-72
2023/07/14 14:20:18;;;;;;;15.30;14.40;;;;;;;;;;5020233;28;20116;-73
2023/07/14 14:22:44;;;;;;;17.95;16.95;;;;;;;;;;5018822;28;20688;-72
2023/07/14 14:25:16;;;;;;;18.35;17.35;;;;;;;;;;5019094;28;20128;-74
2023/07/14 14:27:45;;;;;;;19.02;18.00;;;;;;;;;;5017237;28;20061;-72
2023/07/14 14:30:12;;;;;;;21.15;20.00;;;;;;;;;;5017240;28;20033;-70